Ana Sayfa
METAR-TAF:

METAR-TAF

Havaalanları :

Tekirdağ Çorlu Havalimanı

Çorlu, Türkiye

Enlem: 41-08N, Boylam: 027-55E, yükseklik: 173 m

Güncel hava durumu gözlemi

Rapor saat 05:50 UTC de 31 dakika önce yapıldı.
Rüzgar doğu/kuzeydoğudan 5 kt
Sıcaklık 12°C
Nem 100%
Basınç 1020 hPa
Görüş mesafesi: 2200 m
500 ft yükseklikte az bulutlu
Pus

METAR: LTBU 180550Z 06005KT 2200 BR FEW005 12/12 Q1020 RMK RWY22 08003KT

Saat: 09:21 (06:21 UTC)

Tahmin

Rapor saat 04:40 UTC de 1 saat ve 41 dakika önce yapıldı.
Ayın 18'si saat 06 UTC'den ayın 19'si saat 06 UTC'ye kadar geçerli Tahmin
Rüzgar değişken yönden 2 kt
Görüş mesafesi: 2500 m
sis kütleleri
Dönüşüyor
ayın 18'si saat 07 UTC'den ayın 18'si saat 10 UTC'ye kadar
Görüş mesafesi 10 km veya daha fazla
1500 m altında bulut yok ve kümülonimbus yok

TAF: LTBU 180440Z 1806/1906 VRB02KT 2500 BCFG NSC BECMG 1807/1810 CAVOK

4.000'den fazla havaalanı için hava durumu gözlemleri ve tahminleri (METAR ve TAF raporları).

Kullanılabilir istasyonlar harita üzerinde sarı ve kırmızı noktalarla gösterilir.

İstasyonun adını görmek için fareyi noktanın üzerinde gezdirin.

Sonrasında hava gözlem ve tahminlerini görmek için tıklayın.

Haritayı değiştirmek için: yaklaştırmak için siyah artı işaretli yeşil düğmeye ve uzaklaştırmak için de eksi işaretli düğmeye hızla tıklayın; bitişik haritalar için yeşil okları kullanın.


METAR-TAF: